Tiempo atmosférico en la estación meteorológica de Castuera , Badajoz (512 m.)



Fecha
DESCASC
Temp. máxima en grados centígrados (hora)
DESCASC
Temp. mínima en grados centígrados (hora)
DESCASC
Temp. media en grados centígrados
DESCASC
Racha de viento máxima en m/sg (hora)
DESCASC
Velocidad máxima media en intervalos de 10 minutos(hora)
DESCASC
Precipitaciones diarias en mm
DESCASC
Precipitaciones de 00:00 a 06:00 en mm
DESCASC
Precipitaciones de 06:00 a 12:00 en mm
DESCASC
Precipitaciones de 12:00 a 18:00 en mm
DESCASC
Precipitaciones de 18:00 a 24:00 en mm
DESCASC
18-01-2018 14.2 (16:00) 5.8 (09:20) 10 9.44 (01:10) 4.17 (04:40) 0 0 0 0 0
17-01-2018 12.2 (17:00) 7.1 (08:30) 9.6 6.11 (23:59) 3.61 (15:50) 0 0 0 0 0
16-01-2018 13.9 (16:40) 5.7 (02:10) 9.8 4.44 (15:00) 3.06 (15:40) 0 0 0 0 0
15-01-2018 10.1 (15:50) 1.7 (09:10) 5.9 5.83 (13:50) 3.33 (13:30) 0.2 0 0 0.2 0
14-01-2018 7.6 (15:20) 3.6 (00:00) 5.6 5.56 (16:20) 3.06 (17:10) 1.2 0.8 0.2 0.2 0
13-01-2018 9.3 (16:50) 5.2 (00:00) 7.3 11.67 (14:40) 7.78 (14:40) 3 0 1.6 1.4 0
12-01-2018 10.7 (13:40) 2.9 (00:00) 6.8 7.5 (10:40) 5.28 (10:20) 0 0 0 0 0
11-01-2018 10.8 (16:30) 4.2 (00:00) 7.5 9.72 (12:50) 6.67 (12:50) 0 0 0 0 0
10-01-2018 13 (16:30) 5.7 (00:00) 9.3 12.22 (16:10) 8.33 (16:10) 0.6 0 0 0.4 0.2
09-01-2018 9.2 (23:30) 3 (00:00) 6.1 13.89 (18:30) 8.89 (18:50) 1.4 0 0 0.8 0.6
08-01-2018 7.6 (16:20) 2.8 (00:00) 5.2 6.67 (05:00) 4.17 (04:50) 3 3 0 0 0
07-01-2018 6.7 (14:40) 2.2 (00:00) 4.4 8.33 (01:30) 3.61 (02:20) 1.6 0 0.4 0.4 0.8
06-01-2018 8.1 (16:30) 2.6 (00:00) 5.4 11.39 (17:10) 7.22 (17:20) 4.4 4 0.2 0.2 0
05-01-2018 13.8 (13:40) 7.1 (00:00) 10.5 13.33 (14:10) 9.17 (14:10) 9.2 0 0 0.8 8.4
04-01-2018 13.5 (16:10) 10.7 (11:00) 12.1 6.11 (14:10) 3.61 (11:30) 0 0 0 0 0
03-01-2018 12.2 (17:20) 10.1 (00:00) 11.2 4.17 (14:50) 2.5 (13:40) 0 0 0 0 0
02-01-2018 13.7 (16:30) 5.6 (00:00) 9.6 7.5 (13:40) 4.44 (13:40) 0 0 0 0 0
01-01-2018 12.3 (15:00) 5.5 (00:00) 8.9 8.06 (17:00) 5 (17:00) 0 0 0 0 0
31-12-2017 13.5 (15:00) 7.3 (00:00) 10.4 11.67 (15:20) 8.06 (15:20) 0 0 0 0 0
30-12-2017 16.1 (15:10) 10.6 (00:00) 13.4 5 (14:10) 3.06 (14:20) 0 0 0 0 0
29-12-2017 14.3 (15:50) 11.2 (00:00) 12.8 9.72 (12:30) 6.39 (12:30) 0 0 0 0 0
28-12-2017 14.3 (15:40) 8 (00:00) 11.2 12.5 (05:00) 8.33 (12:50) 0.2 0.2 0 0 0
27-12-2017 11.7 (15:50) 8.3 (00:00) 10 14.72 (05:30) 10 (05:20) 5.6 5 0.6 0 0
26-12-2017 10.2 (00:10) 6.6 (00:00) 8.4 12.5 (23:20) 9.17 (23:30) 0.8 0.4 0 0 0.4
25-12-2017 12.3 (14:50) 7.5 (00:00) 9.9 8.61 (17:10) 6.67 (17:10) 0 0 0 0 0
24-12-2017 15.7 (15:20) 5.7 (00:00) 10.7 7.78 (11:50) 4.72 (00:20) 0 0 0 0 0

Gráficas

Temp. máximas Temp. mínimas Temp. medias Precipitaciones Rachas de viento máximas Velocidades máximas media en intervalos de 10 minutos

Datos horarios

Fecha y hora oficial Temperatura (ºC) Velocidad del viento (km/h) Dirección del viento Racha (km/h) Dirección de racha Precipitación (mm) Presión (hPa) Tendencia (hPa) Humedad (%)
2018-01-22 23:00:00 6.7 3 Sur 8 Norte 0 -- -- 99
2018-01-22 22:00:00 6.6 4 Norte 11 Norte 0 -- -- 99
2018-01-22 21:00:00 6.9 4 Nordeste 12 Norte 0 -- -- 98
2018-01-22 20:00:00 7.5 5 Norte 12 Norte 0 -- -- 97
2018-01-22 19:00:00 7.9 4 Nordeste 9 Norte 0 -- -- 96
2018-01-22 18:00:00 8.6 5 Norte 13 Noroeste 0 -- -- 94
2018-01-22 17:00:00 9.2 5 Norte 10 Norte 0 -- -- 92
2018-01-22 16:00:00 9.2 5 Norte 12 Norte 0 -- -- 94
2018-01-22 15:00:00 8.6 3 Norte 8 Norte 0 -- -- 99
2018-01-22 14:00:00 7.7 3 Noroeste 10 Oeste 0 -- -- 99
2018-01-22 13:00:00 7.6 6 Sudoeste 10 Sudoeste 0 -- -- 99
2018-01-22 12:00:00 7.2 5 Sudoeste 11 Sur 0 -- -- 99
2018-01-22 11:00:00 6.7 4 Sudoeste 9 Sur 0 -- -- 99
2018-01-22 10:00:00 6.5 4 Sur 6 Sudoeste 0 -- -- 99
2018-01-22 09:00:00 6.4 2 Sudoeste 4 Oeste 0 -- -- 99
2018-01-22 08:00:00 6.5 2 Oeste 4 Oeste 0.2 -- -- 99
2018-01-22 07:00:00 6.6 0 Calma 4 Sur 0 -- -- 98
2018-01-22 06:00:00 6.5 0 Calma 3 Sur 0 -- -- 98
2018-01-22 05:00:00 6.8 2 Oeste 5 Oeste 0 -- -- 97
2018-01-22 04:00:00 8.2 0 Calma 5 Oeste 0 -- -- 97
2018-01-22 03:00:00 8.6 0 Calma 4 Sur 0 -- -- 96
2018-01-22 02:00:00 8.8 3 Sur 5 Sudeste 0 -- -- 95
2018-01-22 01:00:00 9.3 2 Sur 4 Sudeste 0 -- -- 93
2018-01-22 00:00:00 9.3 4 Sudeste 9 Sudeste 0 -- -- 92
2018-01-21 23:00:00 9.6 0 Calma 9 Sudeste 0 -- -- 91
2018-01-21 22:00:00 9.1 6 Sudeste 8 Sudeste 0 -- -- 91
2018-01-21 21:00:00 9.6 2 Nordeste 13 Norte 0 -- -- 89
2018-01-21 20:00:00 9.7 9 Norte 19 Norte 0 -- -- 90
2018-01-21 19:00:00 11 8 Norte 13 Norte 0 -- -- 84
2018-01-21 18:00:00 13.2 7 Norte 17 Norte 0 -- -- 73
2018-01-21 17:00:00 13.9 9 Norte 17 Noroeste 0 -- -- 69
2018-01-21 16:00:00 13.9 10 Noroeste 19 Noroeste 0 -- -- 69
2018-01-21 15:00:00 13.7 9 Norte 16 Norte 0 -- -- 70
2018-01-21 14:00:00 12.3 5 Noroeste 11 Oeste 0 -- -- 76
2018-01-21 13:00:00 11.2 4 Norte 13 Oeste 0 -- -- 78
2018-01-21 12:00:00 9.9 4 Noroeste 9 Oeste 0 -- -- 83
2018-01-21 11:00:00 8.8 0 Calma 3 Oeste 0 -- -- 87
2018-01-21 10:00:00 6.8 0 Calma 4 Sudeste 0 -- -- 94
2018-01-21 09:00:00 5.1 3 Sur 8 Sudeste 0 -- -- 96
2018-01-21 08:00:00 5.5 3 Sur 6 Sudeste 0 -- -- 95
2018-01-21 07:00:00 5.8 0 Calma 8 Oeste 0 -- -- 93
2018-01-21 06:00:00 5.9 2 Este 6 Sur 0 -- -- 94
2018-01-21 05:00:00 6.2 4 Sur 9 Sudoeste 0 -- -- 93
2018-01-21 04:00:00 6.3 4 Sudeste 6 Sudeste 0 -- -- 93
2018-01-21 03:00:00 6.7 3 Sur 9 Sur 0 -- -- 91
2018-01-21 02:00:00 7.2 6 Sur 9 Sur 0 -- -- 86
2018-01-21 01:00:00 7.8 0 Calma 10 Sur 0 -- -- 86
2018-01-21 00:00:00 7.7 6 Sur 12 Sur 0 -- -- 85
2018-01-20 23:00:00 8.5 6 Sur 10 Sur 0 -- -- 76
2018-01-20 22:00:00 9 5 Sur 9 Sur 0 -- -- 69
2018-01-20 21:00:00 9.9 3 Sur 9 Sudoeste 0 -- -- 65
2018-01-20 20:00:00 11 3 Sudoeste 10 Noroeste 0 -- -- 54
2018-01-20 19:00:00 12.4 5 Noroeste 11 Oeste 0 -- -- 51
2018-01-20 18:00:00 14.7 6 Noroeste 14 Noroeste 0 -- -- 45
2018-01-20 17:00:00 15.9 9 Noroeste 14 Oeste 0 -- -- 42
2018-01-20 16:00:00 15.3 9 Oeste 14 Noroeste 0 -- -- 55
2018-01-20 15:00:00 13.8 8 Oeste 15 Oeste 0 -- -- 64
2018-01-20 14:00:00 13.1 7 Oeste 13 Oeste 0 -- -- 64
2018-01-20 13:00:00 12.4 4 Oeste 9 Oeste 0 -- -- 64
2018-01-20 12:00:00 11.6 5 Sudoeste 6 Sudoeste 0 -- -- 69
2018-01-20 11:00:00 11 3 Sur 8 Sudoeste 0 -- -- 68
2018-01-20 10:00:00 8.3 2 Sudoeste 7 Sudeste 0 -- -- 78
2018-01-20 09:00:00 6.2 3 Sur 6 Sur 0 -- -- 85
2018-01-20 08:00:00 6.4 3 Sudeste 10 Sudeste 0 -- -- 84
2018-01-20 07:00:00 7 0 Calma 10 Norte 0 -- -- 80
2018-01-20 06:00:00 6.9 4 Nordeste 6 Norte 0 -- -- 81
2018-01-20 05:00:00 7.8 0 Calma 10 Sudeste 0 -- -- 78
2018-01-20 04:00:00 7.3 7 Sudeste 11 Nordeste 0 -- -- 80
2018-01-20 03:00:00 8.8 9 Norte 13 Norte 0 -- -- 74
2018-01-20 02:00:00 8.6 2 Norte 6 Norte 0 -- -- 75
2018-01-20 01:00:00 9.1 3 Sudeste 5 Sudeste 0 -- -- 74
2018-01-20 00:00:00 10 0 Calma 6 Norte 0 -- -- 71
2018-01-19 23:00:00 10.4 0 Calma 5 Oeste 0 -- -- 70
2018-01-19 22:00:00 10.6 0 Calma 9 Oeste 0 -- -- 70
2018-01-19 21:00:00 10.7 3 Sur 6 Sudeste 0 -- -- 67
2018-01-19 20:00:00 11.7 0 Calma 5 Noroeste 0 -- -- 63
2018-01-19 19:00:00 12.1 4 Norte 12 Norte 0 -- -- 65
2018-01-19 18:00:00 13.9 7 Norte 16 Norte 0 -- -- 62
2018-01-19 17:00:00 15.2 5 Norte 13 Noroeste 0 -- -- 59
2018-01-19 16:00:00 15.2 7 Noroeste 14 Norte 0 -- -- 62
2018-01-19 15:00:00 14.8 5 Sudoeste 10 Oeste 0 -- -- 61
2018-01-19 14:00:00 12.5 4 Noroeste 13 Norte 0 -- -- 69
2018-01-19 13:00:00 10.4 7 Nordeste 19 Nordeste 0 -- -- 74
2018-01-19 12:00:00 10.1 11 Norte 22 Norte 0 -- -- 72
2018-01-19 11:00:00 9 3 Noroeste 8 Sur 0 -- -- 73
2018-01-19 10:00:00 7.1 0 Calma 10 Nordeste 0 -- -- 79
2018-01-19 09:00:00 7.1 9 Nordeste 12 Nordeste 0 -- -- 77
2018-01-19 08:00:00 6.9 5 Norte 8 Nordeste 0 -- -- 79
2018-01-19 07:00:00 7.2 6 Nordeste 8 Nordeste 0 -- -- 78
2018-01-19 06:00:00 7.3 4 Sur 12 Sudeste 0 -- -- 80
2018-01-19 05:00:00 8.1 3 Norte 5 Norte 0 -- -- 74
2018-01-19 04:00:00 8.4 0 Calma 10 Sudeste 0 -- -- 74
2018-01-19 03:00:00 8.1 3 Sudeste 9 Sudeste 0 -- -- 77
2018-01-19 02:00:00 8 10 Sudeste 13 Sudeste 0 -- -- 78
2018-01-19 01:00:00 8.8 2 Este 9 Nordeste 0 -- -- 74
2018-01-19 00:00:00 9.6 8 Nordeste 11 Nordeste 0 -- -- 71
2018-01-18 23:00:00 10.2 6 Nordeste 9 Nordeste 0 -- -- 69
2018-01-18 22:00:00 10.8 5 Nordeste 9 Nordeste 0 -- -- 66
2018-01-18 21:00:00 11.1 5 Nordeste 9 Nordeste 0 -- -- 65
2018-01-18 20:00:00 11.6 3 Norte 5 Nordeste 0 -- -- 64
2018-01-18 19:00:00 12.3 5 Nordeste 7 Norte 0 -- -- 60
2018-01-18 18:00:00 13.3 8 Norte 15 Nordeste 0 -- -- 63
2018-01-18 17:00:00 14.2 4 Nordeste 20 Norte 0 -- -- 59
2018-01-18 16:00:00 14.2 13 Nordeste 24 Nordeste 0 -- -- 57
2018-01-18 15:00:00 13.6 10 Nordeste 21 Nordeste 0 -- -- 60
2018-01-18 14:00:00 12.8 11 Nordeste 19 Nordeste 0 -- -- 62
2018-01-18 13:00:00 12.7 4 Sudoeste 8 Noroeste 0 -- -- 60
2018-01-18 12:00:00 10.3 4 Norte 8 Norte 0 -- -- 64
2018-01-18 11:00:00 9.6 4 Este 19 Sudeste 0 -- -- 65
2018-01-18 10:00:00 8 10 Sudeste 18 Sudeste 0 -- -- 69
2018-01-18 09:00:00 6.1 0 Calma 10 Sudeste 0 -- -- 73
2018-01-18 08:00:00 7.1 4 Nordeste 14 Este 0 -- -- 68
2018-01-18 07:00:00 6.8 5 Sudeste 10 Sudeste 0 -- -- 71
2018-01-18 06:00:00 7.1 3 Noroeste 18 Nordeste 0 -- -- 72
2018-01-18 05:00:00 9.7 11 Sudeste 28 Sudeste 0 -- -- 60
2018-01-18 04:00:00 10 12 Este 26 Este 0 -- -- 65
2018-01-18 03:00:00 8.9 6 Sudeste 17 Sudeste 0 -- -- 74
2018-01-18 02:00:00 10.1 13 Este 34 Sudeste 0 -- -- 73
2018-01-18 01:00:00 10.1 11 Este 25 Este 0 -- -- 75
2018-01-18 00:00:00 9.9 7 Este 22 Sudeste 0 -- -- 77
2018-01-17 23:00:00 9.8 3 Sudeste 14 Nordeste 0 -- -- 83
2018-01-17 22:00:00 9.1 2 Sudoeste 9 Este 0 -- -- 88
2018-01-17 21:00:00 9.7 4 Este 17 Nordeste 0 -- -- 87
2018-01-17 20:00:00 9 8 Nordeste 12 Nordeste 0 -- -- 93
2018-01-17 19:00:00 10.3 7 Nordeste 12 Nordeste 0 -- -- 87
2018-01-17 18:00:00 11.8 7 Nordeste 16 Nordeste 0 -- -- 81
2018-01-17 17:00:00 12.2 7 Nordeste 19 Nordeste 0 -- -- 79
2018-01-17 16:00:00 12 12 Nordeste 21 Nordeste 0 -- -- 80
2018-01-17 15:00:00 11.6 9 Nordeste 19 Nordeste 0 -- -- 81
2018-01-17 14:00:00 11 7 Nordeste 15 Nordeste 0 -- -- 84
2018-01-17 13:00:00 10.2 4 Este 15 Este 0 -- -- 86
2018-01-17 12:00:00 8.7 2 Nordeste 13 Nordeste 0 -- -- 100
2018-01-17 11:00:00 8 3 Oeste 5 Oeste 0 -- -- 100
2018-01-17 10:00:00 7.8 2 Sudoeste 7 Sudeste 0 -- -- 100
2018-01-17 09:00:00 7.2 5 Sudeste 8 Sudeste 0 -- -- 100
2018-01-17 08:00:00 7.3 4 Sur 6 Sur 0 -- -- 99
2018-01-17 07:00:00 7.3 0 Calma 9 Noroeste 0 -- -- 100
2018-01-17 06:00:00 7.9 2 Noroeste 10 Noroeste 0 -- -- 99
2018-01-17 05:00:00 8.3 5 Noroeste 14 Noroeste 0 -- -- 99
2018-01-17 04:00:00 8.6 5 Norte 15 Noroeste 0 -- -- 99
2018-01-17 03:00:00 8.7 5 Noroeste 18 Noroeste 0 -- -- 99
2018-01-17 02:00:00 9 10 Norte 18 Norte 0 -- -- 98
2018-01-17 01:00:00 9.4 10 Norte 20 Noroeste 0 -- -- 97
2018-01-17 00:00:00 9.5 6 Norte 11 Norte 0 -- -- 97
2018-01-16 23:00:00 9.4 0 Calma 8 Noroeste 0 -- -- 96
2018-01-16 22:00:00 9.2 0 Calma 6 Oeste 0 -- -- 96
2018-01-16 21:00:00 8.8 2 Sur 7 Sur 0 -- -- 96
2018-01-16 20:00:00 8.7 0 Calma 11 Sudoeste 0 -- -- 94
2018-01-16 19:00:00 9.1 5 Sudoeste 15 Oeste 0 -- -- 92
2018-01-16 18:00:00 12.3 10 Oeste 15 Oeste 0 -- -- 77
2018-01-16 17:00:00 13.7 10 Oeste 16 Oeste 0 -- -- 68
2018-01-16 16:00:00 13.7 10 Oeste 15 Oeste 0 -- -- 60
2018-01-16 15:00:00 13.4 8 Oeste 16 Oeste 0 -- -- 58
2018-01-16 14:00:00 12.6 6 Oeste 14 Oeste 0 -- -- 58
2018-01-16 13:00:00 11.8 6 Sudoeste 12 Sudoeste 0 -- -- 58
2018-01-16 12:00:00 10.3 6 Sudoeste 14 Sudoeste 0 -- -- 65
2018-01-16 11:00:00 9.3 6 Sudoeste 14 Sur 0 -- -- 63
2018-01-16 10:00:00 7.9 8 Sur 12 Sur 0 -- -- 67
2018-01-16 09:00:00 6.4 6 Sur 14 Sur 0 -- -- 70
2018-01-16 08:00:00 5.7 6 Sur 12 Sur 0 -- -- 72
2018-01-16 07:00:00 5.9 3 Sur 10 Sudoeste 0 -- -- 70
2018-01-16 06:00:00 6.1 5 Sur 13 Sur 0 -- -- 69
2018-01-16 05:00:00 6 5 Sur 8 Sur 0 -- -- 73
2018-01-16 04:00:00 5.7 3 Sur 5 Oeste 0 -- -- 75
2018-01-16 03:00:00 6 3 Sur 9 Sur 0 -- -- 73
2018-01-16 02:00:00 5.8 3 Sur 6 Sur 0 -- -- 75
2018-01-16 01:00:00 6.3 0 Calma 5 Sur 0 -- -- 72
2018-01-16 00:00:00 6.1 3 Sudeste 6 Sur 0 -- -- 74
2018-01-15 23:00:00 6.1 4 Sudeste 5 Sudeste 0 -- -- 74
2018-01-15 22:00:00 6.6 0 Calma 4 Norte 0 -- -- 75
2018-01-15 21:00:00 7 0 Calma 5 Norte 0 -- -- 68
2018-01-15 20:00:00 7.4 0 Calma 5 Nordeste 0 -- -- 73
2018-01-15 19:00:00 7.8 3 Norte 6 Norte 0 -- -- 71
2018-01-15 18:00:00 9.2 3 Norte 11 Norte 0 -- -- 67
2018-01-15 17:00:00 9.8 4 Norte 12 Norte 0 -- -- 66
2018-01-15 16:00:00 10.1 5 Norte 15 Norte 0 -- -- 68
2018-01-15 15:00:00 9.5 5 Este 21 Este 0.2 -- -- 63
2018-01-15 14:00:00 8.5 8 Este 21 Este 0 -- -- 67
2018-01-15 13:00:00 7.8 6 Nordeste 13 Este 0 -- -- 66
2018-01-15 12:00:00 6.4 8 Nordeste 15 Nordeste 0 -- -- 74
2018-01-15 11:00:00 4.9 3 Nordeste 8 Norte 0 -- -- 86
2018-01-15 10:00:00 3.9 0 Calma 13 Este 0 -- -- 87
2018-01-15 09:00:00 1.8 0 Calma 14 Este 0 -- -- 93
2018-01-15 08:00:00 3.8 5 Este 12 Nordeste 0 -- -- 83
2018-01-15 07:00:00 2.5 9 Nordeste 13 Nordeste 0 -- -- 96
2018-01-15 06:00:00 2.6 8 Nordeste 13 Nordeste 0 -- -- 93
2018-01-15 05:00:00 3.2 4 Nordeste 15 Nordeste 0 -- -- 90
2018-01-15 04:00:00 4 3 Nordeste 14 Nordeste 0 -- -- 89
2018-01-15 03:00:00 3.9 6 Nordeste 9 Este 0 -- -- 89
2018-01-15 02:00:00 2.8 2 Sur 7 Este 0 -- -- 91
2018-01-15 01:00:00 4.1 5 Este 9 Sur 0 -- -- 90
2018-01-15 00:00:00 3.6 0 Calma 9 Nordeste 0 -- -- 87
2018-01-14 23:00:00 4.4 7 Nordeste 12 Este 0 -- -- 87
2018-01-14 22:00:00 4.3 6 Norte 10 Norte 0 -- -- 87
2018-01-14 21:00:00 4.5 5 Nordeste 8 Nordeste 0 -- -- 89
2018-01-14 20:00:00 4.7 3 Noroeste 7 Noroeste 0 -- -- 91
2018-01-14 19:00:00 5.3 5 Norte 11 Norte 0 -- -- 87
2018-01-14 18:00:00 6.4 6 Norte 19 Norte 0 -- -- 80
2018-01-14 17:00:00 6.7 9 Noroeste 20 Noroeste 0 -- -- 82
2018-01-14 16:00:00 7.1 8 Noroeste 16 Noroeste 0 -- -- 80
2018-01-14 15:00:00 7.5 5 Oeste 10 Oeste 0 -- -- 85
2018-01-14 14:00:00 5.9 0 Calma 8 Noroeste 0.2 -- -- 93
2018-01-14 13:00:00 5.6 5 Noroeste 14 Norte 0 -- -- 94
2018-01-14 12:00:00 5.6 0 Calma 5 Nordeste 0.2 -- -- 96
2018-01-14 11:00:00 5.4 0 Calma 9 Norte 0 -- -- 97
2018-01-14 10:00:00 5.4 0 Calma 4 Sudoeste 0 -- -- 97
2018-01-14 09:00:00 5.1 3 Sur 9 Sur 0 -- -- 97
2018-01-14 08:00:00 5 4 Sur 10 Sudoeste 0 -- -- 96
2018-01-14 07:00:00 5.2 4 Sur 9 Oeste 0 -- -- 96
2018-01-14 06:00:00 5.3 3 Sudoeste 12 Sudeste 0.2 -- -- 95
2018-01-14 05:00:00 4.9 7 Sur 11 Sudoeste 0 -- -- 95
2018-01-14 04:00:00 5.1 4 Noroeste 18 Sur 0.6 -- -- 94
2018-01-14 03:00:00 4.9 8 Sur 12 Sudoeste 0 -- -- 93
2018-01-14 02:00:00 4.7 4 Sur 10 Sudeste 0 -- -- 92
2018-01-14 01:00:00 4.8 6 Sur 10 Sudeste 0 -- -- 91
2018-01-14 00:00:00 5.2 7 Sudoeste 13 Sudoeste 0 -- -- 88
2018-01-13 23:00:00 5.7 4 Sudoeste 15 Oeste 0 -- -- 89
2018-01-13 22:00:00 5.2 4 Sudoeste 12 Sur 0 -- -- 91
2018-01-13 21:00:00 5.5 6 Sur 14 Sudoeste 0 -- -- 93
2018-01-13 20:00:00 6.3 4 Sudoeste 16 Oeste 0 -- -- 92
2018-01-13 19:00:00 6.5 5 Noroeste 18 Noroeste 0 -- -- 92
2018-01-13 18:00:00 7.8 14 Noroeste 35 Noroeste 0 -- -- 87
2018-01-13 17:00:00 9 24 Noroeste 39 Oeste 0 -- -- 85
2018-01-13 16:00:00 8 15 Sudoeste 38 Sudoeste 0 -- -- 92
2018-01-13 15:00:00 8.1 27 Sudoeste 42 Sudoeste 0 -- -- 92
2018-01-13 14:00:00 6.8 24 Sur 36 Sudoeste 0.6 -- -- 95
2018-01-13 13:00:00 5.9 18 Sur 40 Sudeste 0.8 -- -- 94
2018-01-13 12:00:00 5.3 14 Sudeste 23 Sudeste 1.6 -- -- 90
2018-01-13 11:00:00 6.1 14 Sudeste 27 Sudeste 0 -- -- 80
2018-01-13 10:00:00 6.4 14 Sudeste 25 Sudeste 0 -- -- 74
2018-01-13 09:00:00 5.9 15 Sudeste 22 Sudeste 0 -- -- 73
2018-01-13 08:00:00 5.9 12 Sudeste 15 Sudeste 0 -- -- 72
2018-01-13 07:00:00 5.9 9 Sudeste 15 Sudeste 0 -- -- 74
2018-01-13 06:00:00 6 11 Sudeste 17 Sudeste 0 -- -- 74
2018-01-13 05:00:00 6.3 12 Sudeste 18 Sudeste 0 -- -- 72
2018-01-13 04:00:00 6.7 14 Sudeste 22 Sudeste 0 -- -- 72
2018-01-13 03:00:00 6.6 9 Sudeste 19 Sudeste 0 -- -- 77
2018-01-13 02:00:00 7.2 15 Sudeste 22 Sudeste 0 -- -- 73
2018-01-13 01:00:00 7.3 10 Sudeste 24 Sudeste 0 -- -- 74
2018-01-13 00:00:00 7.1 13 Sudeste 25 Sudeste 0 -- -- 76
2018-01-12 23:00:00 7.4 13 Sudeste 18 Sudeste 0 -- -- 71
2018-01-12 22:00:00 6.4 5 Sudeste 10 Sudeste 0 -- -- 79
2018-01-12 21:00:00 5.6 5 Sur 9 Sudeste 0 -- -- 83
2018-01-12 20:00:00 6.9 0 Calma 6 Nordeste 0 -- -- 76
2018-01-12 19:00:00 7.2 0 Calma 4 Nordeste 0 -- -- 76
2018-01-12 18:00:00 8.2 0 Calma 7 Este 0 -- -- 72
2018-01-12 17:00:00 8.4 5 Nordeste 10 Nordeste 0 -- -- 72
2018-01-12 16:00:00 8.7 5 Norte 10 Norte 0 -- -- 71
2018-01-12 15:00:00 8.8 5 Norte 13 Norte 0 -- -- 73
2018-01-12 14:00:00 9.7 5 Norte 17 Sudeste 0 -- -- 71
2018-01-12 13:00:00 9.8 9 Sur 17 Sur 0 -- -- 69
2018-01-12 12:00:00 7.7 4 Norte 18 Sudeste 0 -- -- 76
2018-01-12 11:00:00 6.3 14 Sudeste 27 Sudeste 0 -- -- 76
2018-01-12 10:00:00 4.1 18 Sudeste 26 Sudeste 0 -- -- 82
2018-01-12 09:00:00 3.6 6 Sudeste 11 Sudeste 0 -- -- 82
2018-01-12 08:00:00 3.8 3 Nordeste 10 Nordeste 0 -- -- 81
2018-01-12 07:00:00 4 6 Nordeste 10 Nordeste 0 -- -- 80
2018-01-12 06:00:00 2.9 0 Calma 3 Este 0 -- -- 87
2018-01-12 05:00:00 3.4 0 Calma 3 Este 0 -- -- 86
2018-01-12 04:00:00 3.5 0 Calma 6 Sudeste 0 -- -- 85
2018-01-12 03:00:00 3.9 0 Calma 4 Noroeste 0 -- -- 84
2018-01-12 02:00:00 4.5 0 Calma 5 Noroeste 0 -- -- 83
2018-01-12 01:00:00 4.6 3 Sudeste 7 Sur 0 -- -- 84
2018-01-12 00:00:00 5.1 0 Calma 6 Sudeste 0 -- -- 83
2018-01-11 23:00:00 5.6 0 Calma 12 Norte 0 -- -- 81
2018-01-11 22:00:00 6.4 4 Noroeste 16 Noroeste 0 -- -- 78
2018-01-11 21:00:00 6.4 2 Norte 10 Noroeste 0 -- -- 78
2018-01-11 20:00:00 6.9 2 Noroeste 14 Noroeste 0 -- -- 76
2018-01-11 19:00:00 8 9 Norte 20 Norte 0 -- -- 70
2018-01-11 18:00:00 9.2 12 Noroeste 26 Norte 0 -- -- 66
2018-01-11 17:00:00 9.9 14 Noroeste 33 Norte 0 -- -- 68
2018-01-11 16:00:00 10.3 19 Noroeste 31 Noroeste 0 -- -- 74
2018-01-11 15:00:00 9.5 14 Noroeste 29 Noroeste 0 -- -- 82
2018-01-11 14:00:00 9.1 19 Noroeste 33 Noroeste 0 -- -- 79
2018-01-11 13:00:00 9.3 22 Noroeste 35 Noroeste 0 -- -- 81
2018-01-11 12:00:00 8.6 21 Noroeste 35 Noroeste 0 -- -- 82
2018-01-11 11:00:00 7.2 16 Noroeste 27 Oeste 0 -- -- 95
2018-01-11 10:00:00 5.7 12 Noroeste 21 Oeste 0 -- -- 98
2018-01-11 09:00:00 4.6 3 Oeste 13 Oeste 0 -- -- 97
2018-01-11 08:00:00 4.4 6 Sudoeste 10 Sudoeste 0 -- -- 96
2018-01-11 07:00:00 4.5 4 Sudoeste 12 Sudoeste 0 -- -- 96
2018-01-11 06:00:00 4.6 4 Sudoeste 11 Sudoeste 0 -- -- 95
2018-01-11 05:00:00 4.8 4 Sudeste 21 Sudoeste 0 -- -- 93
2018-01-11 04:00:00 4.6 4 Oeste 14 Sur 0 -- -- 94
2018-01-11 03:00:00 4.5 8 Sur 14 Sur 0 -- -- 93
2018-01-11 02:00:00 5.2 4 Oeste 10 Oeste 0 -- -- 91
2018-01-11 01:00:00 5.3 2 Oeste 10 Oeste 0 -- -- 91
2018-01-11 00:00:00 5.7 5 Noroeste 17 Noroeste 0 -- -- 88
2018-01-10 23:00:00 6.7 10 Noroeste 25 Noroeste 0 -- -- 86
2018-01-10 22:00:00 7.6 17 Noroeste 30 Oeste 0 -- -- 84
2018-01-10 21:00:00 8.4 14 Noroeste 32 Oeste 0 -- -- 88
2018-01-10 20:00:00 8.9 17 Oeste 31 Oeste 0 -- -- 91
2018-01-10 19:00:00 9.5 16 Oeste 38 Oeste 0.2 -- -- 93
2018-01-10 18:00:00 11 24 Oeste 40 Oeste 0.4 -- -- 88
2018-01-10 17:00:00 12.1 23 Sudoeste 44 Oeste 0 -- -- 79
2018-01-10 16:00:00 12.3 27 Sudoeste 37 Sudoeste 0 -- -- 79
2018-01-10 15:00:00 12.4 25 Oeste 36 Oeste 0 -- -- 77
2018-01-10 14:00:00 11.6 20 Sudoeste 31 Sudoeste 0 -- -- 81
2018-01-10 13:00:00 10.4 13 Oeste 25 Oeste 0 -- -- 83
2018-01-10 12:00:00 9.5 14 Oeste 26 Sudoeste 0 -- -- 88
2018-01-10 11:00:00 8 11 Oeste 19 Oeste 0 -- -- 100
2018-01-10 10:00:00 7.5 12 Oeste 24 Oeste 0 -- -- 99
2018-01-10 09:00:00 7.3 13 Oeste 19 Oeste 0 -- -- 99
2018-01-10 08:00:00 7.2 4 Oeste 14 Noroeste 0 -- -- 99
2018-01-10 07:00:00 7.1 8 Noroeste 21 Noroeste 0 -- -- 99
2018-01-10 06:00:00 7.3 15 Noroeste 24 Noroeste 0 -- -- 99
2018-01-10 05:00:00 7.8 17 Noroeste 29 Noroeste 0 -- -- 99
2018-01-10 04:00:00 8.6 15 Noroeste 26 Oeste 0 -- -- 98
2018-01-10 03:00:00 9.1 10 Oeste 17 Oeste 0 -- -- 97
2018-01-10 02:00:00 9.2 9 Sur 21 Sudoeste 0 -- -- 95
2018-01-10 01:00:00 9.2 12 Sur 21 Sur 0 -- -- 95
2018-01-10 00:00:00 9.1 11 Sur 23 Sudoeste 0 -- -- 95
2018-01-09 23:00:00 9.1 13 Sur 25 Sur 0.4 -- -- 95
2018-01-09 22:00:00 8.8 19 Sur 39 Sur 0 -- -- 95
2018-01-09 21:00:00 8.5 27 Sur 42 Sur 0.2 -- -- 94
2018-01-09 20:00:00 8.1 27 Sur 46 Sudeste 0 -- -- 93
2018-01-09 19:00:00 7.8 29 Sur 50 Sur 0 -- -- 92
2018-01-09 18:00:00 7.4 22 Sur 36 Sudeste 0.6 -- -- 94
2018-01-09 17:00:00 7.6 19 Sudeste 33 Sudeste 0.2 -- -- 88
2018-01-09 16:00:00 7.9 24 Sur 37 Sur 0 -- -- 86
2018-01-09 15:00:00 7.3 28 Sur 37 Sur 0 -- -- 88
2018-01-09 14:00:00 7.2 22 Sur 37 Sur 0 -- -- 84
2018-01-09 13:00:00 6.5 19 Sudeste 35 Sur 0 -- -- 80
2018-01-09 12:00:00 4.7 18 Sur 30 Sudeste 0 -- -- 85
2018-01-09 11:00:00 4.4 17 Sudeste 29 Sudeste 0 -- -- 83
2018-01-09 10:00:00 3.4 17 Sudeste 30 Sudeste 0 -- -- 85
2018-01-09 09:00:00 3.1 19 Sudeste 28 Sudeste 0 -- -- 85
2018-01-09 08:00:00 4.7 13 Sudeste 20 Sudeste 0 -- -- 77
2018-01-09 07:00:00 4.4 12 Sudeste 15 Sudeste 0 -- -- 78
2018-01-09 06:00:00 4.2 10 Sudeste 15 Sudeste 0 -- -- 80
2018-01-09 05:00:00 4.2 8 Sudeste 12 Sudeste 0 -- -- 81
2018-01-09 04:00:00 3.9 9 Sudeste 11 Sudeste 0 -- -- 82
2018-01-09 03:00:00 3.3 4 Sur 6 Sur 0 -- -- 84
2018-01-09 02:00:00 3.5 3 Sur 4 Sur 0 -- -- 83
2018-01-09 01:00:00 3.6 0 Calma 4 Sudoeste 0 -- -- 83
2018-01-09 00:00:00 3.9 2 Sur 3 Sur 0 -- -- 82
2018-01-08 23:00:00 4.1 0 Calma 4 Sudeste 0 -- -- 81
2018-01-08 22:00:00 4.5 3 Sudeste 4 Sudeste 0 -- -- 80
2018-01-08 21:00:00 4.9 0 Calma 4 Noroeste 0 -- -- 79
2018-01-08 20:00:00 5.2 0 Calma 4 Noroeste 0 -- -- 79
2018-01-08 19:00:00 5.8 2 Norte 5 Norte 0 -- -- 79
2018-01-08 18:00:00 7.2 4 Nordeste 9 Norte 0 -- -- 72
2018-01-08 17:00:00 7.6 3 Nordeste 13 Norte 0 -- -- 67
2018-01-08 16:00:00 7 10 Nordeste 19 Norte 0 -- -- 68
2018-01-08 15:00:00 6.8 8 Nordeste 14 Nordeste 0 -- -- 72
2018-01-08 14:00:00 6.7 5 Nordeste 15 Nordeste 0 -- -- 76
2018-01-08 13:00:00 6.2 5 Norte 13 Norte 0 -- -- 80
2018-01-08 12:00:00 5 4 Norte 12 Este 0 -- -- 88
2018-01-08 11:00:00 5.3 5 Este 14 Sudeste 0 -- -- 83
2018-01-08 10:00:00 3.7 6 Este 20 Sudeste 0 -- -- 91
2018-01-08 09:00:00 3.2 9 Este 18 Este 0 -- -- 93
2018-01-08 08:00:00 3.1 5 Sudeste 19 Sudeste 0 -- -- 93
2018-01-08 07:00:00 2.9 13 Sudeste 23 Sudeste 0 -- -- 95
2018-01-08 06:00:00 2.9 10 Sudeste 24 Sudeste 0 -- -- 94
2018-01-08 05:00:00 2.9 15 Sudeste 24 Sudeste 0 -- -- 95
2018-01-08 04:00:00 2.9 14 Sudeste 22 Sudeste 0.2 -- -- 95
2018-01-08 03:00:00 2.9 10 Sudeste 17 Sudeste 1.2 -- -- 96
2018-01-08 02:00:00 3.2 6 Sudeste 13 Sudeste 1 -- -- 96
2018-01-08 01:00:00 3.6 9 Sur 14 Sur 0.6 -- -- 97
2018-01-08 00:00:00 3.8 4 Sur 7 Sudoeste 0 -- -- 97
2018-01-07 23:00:00 3.8 4 Sur 9 Sudoeste 0.4 -- -- 96
2018-01-07 22:00:00 3.9 8 Sudoeste 12 Sur 0.4 -- -- 95
2018-01-07 21:00:00 4.2 7 Sur 12 Sudoeste 0 -- -- 93
2018-01-07 20:00:00 4 8 Sur 15 Sudoeste 0 -- -- 93
2018-01-07 19:00:00 4.2 0 Calma 9 Oeste 0 -- -- 90
2018-01-07 18:00:00 4.7 5 Noroeste 16 Noroeste 0.4 -- -- 88
2018-01-07 17:00:00 5.2 6 Noroeste 18 Noroeste 0 -- -- 84
2018-01-07 16:00:00 5.7 12 Oeste 17 Oeste 0 -- -- 80
2018-01-07 15:00:00 6.7 9 Oeste 19 Oeste 0 -- -- 76
2018-01-07 14:00:00 5.1 9 Oeste 16 Oeste 0 -- -- 82
2018-01-07 13:00:00 4.3 7 Noroeste 16 Oeste 0 -- -- 85
2018-01-07 12:00:00 3.8 8 Noroeste 17 Noroeste 0.2 -- -- 85
2018-01-07 11:00:00 3.4 7 Noroeste 17 Noroeste 0.2 -- -- 86
2018-01-07 10:00:00 2.9 10 Noroeste 22 Noroeste 0 -- -- 86
2018-01-07 09:00:00 2.6 5 Noroeste 16 Noroeste 0 -- -- 82
2018-01-07 08:00:00 2.3 0 Calma 10 Oeste 0 -- -- 85
2018-01-07 07:00:00 2.6 5 Oeste 13 Oeste 0 -- -- 85
2018-01-07 06:00:00 2.7 8 Oeste 17 Oeste 0 -- -- 87
2018-01-07 05:00:00 3.2 10 Noroeste 18 Noroeste 0 -- -- 79
2018-01-07 04:00:00 3.2 5 Noroeste 16 Oeste 0 -- -- 79
2018-01-07 03:00:00 3.3 9 Noroeste 21 Oeste 0 -- -- 78
2018-01-07 02:00:00 3.4 9 Noroeste 30 Noroeste 0 -- -- 77
2018-01-07 01:00:00 3.2 8 Noroeste 19 Noroeste 0 -- -- 78
2018-01-07 00:00:00 2.6 5 Noroeste 16 Oeste 0 -- -- 79
2018-01-06 23:00:00 3.1 6 Noroeste 13 Noroeste 0 -- -- 75
2018-01-06 22:00:00 4 6 Noroeste 22 Noroeste 0 -- -- 72
2018-01-06 21:00:00 4.5 11 Noroeste 27 Noroeste 0 -- -- 72
2018-01-06 20:00:00 5.5 15 Noroeste 24 Noroeste 0 -- -- 71
2018-01-06 19:00:00 5.6 14 Noroeste 31 Noroeste 0 -- -- 74
2018-01-06 18:00:00 6.8 19 Noroeste 41 Noroeste 0 -- -- 69
2018-01-06 17:00:00 7.8 23 Noroeste 40 Noroeste 0 -- -- 65
2018-01-06 16:00:00 7.5 21 Noroeste 36 Noroeste 0 -- -- 69
2018-01-06 15:00:00 6.7 19 Noroeste 35 Noroeste 0.2 -- -- 77
2018-01-06 14:00:00 6.4 15 Noroeste 27 Noroeste 0 -- -- 79
2018-01-06 13:00:00 5.8 14 Noroeste 28 Noroeste 0 -- -- 81
2018-01-06 12:00:00 5.3 14 Noroeste 24 Noroeste 0 -- -- 84
2018-01-06 11:00:00 5.2 15 Noroeste 23 Norte 0 -- -- 88
2018-01-06 10:00:00 4.9 15 Noroeste 24 Noroeste 0 -- -- 92
2018-01-06 09:00:00 5.1 9 Noroeste 19 Noroeste 0 -- -- 98
2018-01-06 08:00:00 5.6 6 Norte 15 Norte 0 -- -- 99
2018-01-06 07:00:00 5.8 9 Noroeste 17 Norte 0.2 -- -- 99
2018-01-06 06:00:00 6 8 Noroeste 17 Norte 1 -- -- 99
2018-01-06 05:00:00 5.9 6 Noroeste 14 Norte 1 -- -- 98
2018-01-06 04:00:00 5.8 5 Norte 9 Norte 0.2 -- -- 97
2018-01-06 03:00:00 5.9 3 Noroeste 6 Sudeste 0 -- -- 98
2018-01-06 02:00:00 6.1 0 Calma 8 Norte 0.2 -- -- 97
2018-01-06 01:00:00 6.3 5 Noroeste 27 Noroeste 1.6 -- -- 98
2018-01-06 00:00:00 7.1 19 Noroeste 39 Noroeste 2.4 -- -- 95
2018-01-05 23:00:00 8.4 14 Sudoeste 22 Sudoeste 0.4 -- -- 97
2018-01-05 22:00:00 8.3 9 Sur 18 Sur 1.2 -- -- 97
2018-01-05 21:00:00 8.4 13 Sur 18 Sur 2.6 -- -- 96
2018-01-05 20:00:00 8.5 8 Sur 14 Sur 1.4 -- -- 96
2018-01-05 19:00:00 9 13 Sur 22 Sudoeste 0.4 -- -- 95
2018-01-05 18:00:00 9.9 16 Oeste 36 Sudoeste 0.8 -- -- 90
2018-01-05 17:00:00 12.1 32 Sur 47 Sur 0 -- -- 76
2018-01-05 16:00:00 12.9 26 Sur 42 Sudoeste 0 -- -- 73
2018-01-05 15:00:00 12.9 26 Sudoeste 48 Sudoeste 0 -- -- 72
2018-01-05 14:00:00 13.4 33 Sudoeste 45 Sudoeste 0 -- -- 72
2018-01-05 13:00:00 12.5 26 Sur 44 Sudoeste 0 -- -- 74
2018-01-05 12:00:00 12.3 28 Sur 41 Sur 0 -- -- 77
2018-01-05 11:00:00 11.6 26 Sur 38 Sudoeste 0 -- -- 83
2018-01-05 10:00:00 9.2 17 Sur 23 Sudoeste 0 -- -- 94
2018-01-05 09:00:00 9.1 18 Sudoeste 25 Sudoeste 0 -- -- 89
2018-01-05 08:00:00 9.4 14 Sudoeste 24 Sudoeste 0 -- -- 88
2018-01-05 07:00:00 9.6 9 Oeste 18 Oeste 0 -- -- 91
2018-01-05 06:00:00 10.2 11 Sudoeste 20 Sudoeste 0 -- -- 84
2018-01-05 05:00:00 10.3 12 Sudoeste 18 Sudoeste 0 -- -- 86
2018-01-05 04:00:00 10.5 8 Sudoeste 17 Sudoeste 0 -- -- 92
2018-01-05 03:00:00 10.8 6 Sudoeste 13 Sudoeste 0 -- -- 94
2018-01-05 02:00:00 11 8 Sudoeste 13 Sur 0 -- -- 92
2018-01-05 01:00:00 11.1 8 Sur 14 Sur 0 -- -- 89
2018-01-05 00:00:00 11 6 Sur 9 Sur 0 -- -- 86
2018-01-04 23:00:00 11 4 Sudoeste 9 Sudoeste 0 -- -- 89
2018-01-04 22:00:00 11.2 3 Sudoeste 10 Sudoeste 0 -- -- 92
2018-01-04 21:00:00 11.6 5 Sudoeste 13 Sudoeste 0 -- -- 92
2018-01-04 20:00:00 12.1 5 Oeste 11 Oeste 0 -- -- 89
2018-01-04 19:00:00 12.5 6 Oeste 10 Oeste 0 -- -- 87
2018-01-04 18:00:00 12.8 3 Sudoeste 10 Oeste 0 -- -- 85
2018-01-04 17:00:00 13.1 6 Sudoeste 18 Noroeste 0 -- -- 82
2018-01-04 16:00:00 13.4 10 Oeste 18 Noroeste 0 -- -- 78
2018-01-04 15:00:00 13 10 Oeste 22 Noroeste 0 -- -- 84
2018-01-04 14:00:00 12.5 10 Noroeste 19 Noroeste 0 -- -- 88
2018-01-04 13:00:00 11.8 6 Oeste 18 Oeste 0 -- -- 94
2018-01-04 12:00:00 10.9 11 Oeste 19 Oeste 0 -- -- 97
2018-01-04 11:00:00 10.7 12 Oeste 21 Oeste 0 -- -- 97
2018-01-04 10:00:00 11.2 10 Oeste 15 Oeste 0 -- -- 96
2018-01-04 09:00:00 11.3 4 Oeste 8 Noroeste 0 -- -- 96
2018-01-04 08:00:00 11.5 6 Oeste 12 Oeste 0 -- -- 95
2018-01-04 07:00:00 11.5 4 Oeste 11 Oeste 0 -- -- 96
2018-01-04 06:00:00 11.6 2 Noroeste 5 Oeste 0 -- -- 96
2018-01-04 05:00:00 11.6 0 Calma 6 Noroeste 0 -- -- 97
2018-01-04 04:00:00 11.6 0 Calma 10 Noroeste 0 -- -- 96
2018-01-04 03:00:00 11.7 0 Calma 5 Oeste 0 -- -- 96
2018-01-04 02:00:00 11.6 0 Calma 5 Oeste 0 -- -- 96
2018-01-04 01:00:00 11.5 0 Calma 7 Sur 0 -- -- 96
2018-01-04 00:00:00 11.2 3 Sur 6 Sur 0 -- -- 96
2018-01-03 23:00:00 10.7 4 Sudeste 9 Sudeste 0 -- -- 97
2018-01-03 22:00:00 10.8 2 Sudoeste 6 Sudoeste 0 -- -- 96
2018-01-03 21:00:00 10.9 3 Sur 6 Sudeste 0 -- -- 94
2018-01-03 20:00:00 11.3 3 Sur 5 Sur 0 -- -- 93
2018-01-03 19:00:00 11.6 0 Calma 7 Oeste 0 -- -- 93
2018-01-03 18:00:00 12 3 Oeste 12 Sudoeste 0 -- -- 93
2018-01-03 17:00:00 12 5 Oeste 13 Noroeste 0 -- -- 92
2018-01-03 16:00:00 11.7 8 Oeste 12 Oeste 0 -- -- 95
2018-01-03 15:00:00 11.5 9 Noroeste 15 Noroeste 0 -- -- 97
2018-01-03 14:00:00 11.2 8 Noroeste 15 Norte 0 -- -- 99
2018-01-03 13:00:00 10.7 5 Noroeste 14 Oeste 0 -- -- 99
2018-01-03 12:00:00 10.4 6 Noroeste 14 Noroeste 0 -- -- 99
2018-01-03 11:00:00 10.3 5 Noroeste 14 Noroeste 0 -- -- 98
2018-01-03 10:00:00 10.3 8 Noroeste 13 Noroeste 0 -- -- 98
2018-01-03 09:00:00 10.2 0 Calma 5 Sudeste 0 -- -- 98
2018-01-03 08:00:00 10.5 2 Sudoeste 9 Noroeste 0 -- -- 98
2018-01-03 07:00:00 10.6 6 Noroeste 10 Oeste 0 -- -- 97
2018-01-03 06:00:00 10.6 3 Noroeste 9 Noroeste 0 -- -- 96
2018-01-03 05:00:00 10.5 3 Noroeste 8 Oeste 0 -- -- 95
2018-01-03 04:00:00 10.7 6 Noroeste 10 Noroeste 0 -- -- 93
2018-01-03 03:00:00 10.7 3 Oeste 9 Sur 0 -- -- 93
2018-01-03 02:00:00 10.6 4 Oeste 9 Oeste 0 -- -- 92
2018-01-03 01:00:00 10.6 0 Calma 5 Norte 0 -- -- 90
2018-01-03 00:00:00 10.7 0 Calma 9 Noroeste 0 -- -- 90
2018-01-02 23:00:00 10.7 8 Noroeste 14 Noroeste 0 -- -- 90
2018-01-02 22:00:00 11 5 Noroeste 13 Noroeste 0 -- -- 89
2018-01-02 21:00:00 11.2 7 Noroeste 12 Noroeste 0 -- -- 89
2018-01-02 20:00:00 11.4 3 Noroeste 11 Noroeste 0 -- -- 86
2018-01-02 19:00:00 11.6 6 Norte 14 Noroeste 0 -- -- 86
2018-01-02 18:00:00 11.8 9 Noroeste 19 Noroeste 0 -- -- 83
2018-01-02 17:00:00 12.6 13 Noroeste 22 Norte 0 -- -- 77
2018-01-02 16:00:00 13 9 Noroeste 21 Noroeste 0 -- -- 74
2018-01-02 15:00:00 12.9 9 Noroeste 23 Noroeste 0 -- -- 75
2018-01-02 14:00:00 12.5 15 Noroeste 27 Noroeste 0 -- -- 79
2018-01-02 13:00:00 11.3 12 Noroeste 22 Noroeste 0 -- -- 84
2018-01-02 12:00:00 10 8 Oeste 15 Oeste 0 -- -- 88
2018-01-02 11:00:00 9 3 Sur 7 Sudeste 0 -- -- 96
2018-01-02 10:00:00 7.1 4 Sur 8 Sur 0 -- -- 99
2018-01-02 09:00:00 6 3 Sur 9 Sur 0 -- -- 99
2018-01-02 08:00:00 5.8 4 Sur 8 Sudoeste 0 -- -- 98
2018-01-02 07:00:00 5.6 0 Calma 6 Oeste 0 -- -- 98
2018-01-02 06:00:00 6 3 Sur 8 Sudoeste 0 -- -- 97
2018-01-02 05:00:00 6.3 2 Sur 7 Oeste 0 -- -- 97
2018-01-02 04:00:00 6.6 3 Sudoeste 9 Sudoeste 0 -- -- 96
2018-01-02 03:00:00 7.1 0 Calma 8 Noroeste 0 -- -- 95
2018-01-02 02:00:00 7.1 2 Sudoeste 5 Noroeste 0 -- -- 93
2018-01-02 01:00:00 7.4 0 Calma 6 Noroeste 0 -- -- 91
2018-01-02 00:00:00 7.8 0 Calma 8 Noroeste 0 -- -- 88
2018-01-01 23:00:00 7.9 0 Calma 8 Oeste 0 -- -- 87
2018-01-01 22:00:00 8.3 3 Noroeste 12 Oeste 0 -- -- 86
2018-01-01 21:00:00 8.3 3 Oeste 10 Oeste 0 -- -- 84
2018-01-01 20:00:00 8.9 2 Noroeste 8 Oeste 0 -- -- 81
2018-01-01 19:00:00 9.7 7 Oeste 15 Noroeste 0 -- -- 78
2018-01-01 18:00:00 10.6 12 Oeste 25 Noroeste 0 -- -- 73
2018-01-01 17:00:00 11.5 18 Noroeste 29 Noroeste 0 -- -- 65
2018-01-01 16:00:00 12.2 14 Noroeste 23 Oeste 0 -- -- 53
2018-01-01 15:00:00 12.3 14 Noroeste 24 Noroeste 0 -- -- 54
2018-01-01 14:00:00 11.2 13 Oeste 19 Oeste 0 -- -- 68
2018-01-01 13:00:00 10.3 9 Oeste 16 Oeste 0 -- -- 73
2018-01-01 12:00:00 8.8 3 Oeste 8 Norte 0 -- -- 78
2018-01-01 11:00:00 7.9 2 Noroeste 8 Sudoeste 0 -- -- 77
2018-01-01 10:00:00 7.8 4 Sudeste 8 Sudeste 0 -- -- 74
2018-01-01 09:00:00 6.8 0 Calma 9 Sudeste 0 -- -- 59
2018-01-01 08:00:00 6.1 4 Sudeste 9 Sudeste 0 -- -- 70
2018-01-01 07:00:00 6.5 0 Calma 3 Sudeste 0 -- -- 84
2018-01-01 06:00:00 6 2 Sudeste 6 Sur 0 -- -- 88
2018-01-01 05:00:00 5.6 4 Sur 6 Sur 0 -- -- 92
2018-01-01 04:00:00 6.1 3 Sudeste 4 Sur 0 -- -- 88
2018-01-01 03:00:00 6.4 0 Calma 6 Sudoeste 0 -- -- 92
2018-01-01 02:00:00 6.7 0 Calma 7 Noroeste 0 -- -- 91
2018-01-01 01:00:00 7.1 2 Norte 12 Noroeste 0 -- -- 89
2018-01-01 00:00:00 7.3 5 Noroeste 14 Oeste 0 -- -- 89
2017-12-31 23:00:00 7.9 4 Noroeste 10 Norte 0 -- -- 89
2017-12-31 22:00:00 8.4 2 Oeste 10 Oeste 0 -- -- 89
2017-12-31 21:00:00 9 3 Noroeste 14 Noroeste 0 -- -- 87
2017-12-31 20:00:00 9.7 7 Noroeste 29 Noroeste 0 -- -- 89
2017-12-31 19:00:00 10.9 20 Noroeste 39 Oeste 0 -- -- 85
2017-12-31 18:00:00 12.1 21 Oeste 38 Oeste 0 -- -- 85
2017-12-31 17:00:00 12.8 21 Sudoeste 35 Sudoeste 0 -- -- 76
2017-12-31 16:00:00 12.9 22 Sudoeste 42 Sudoeste 0 -- -- 76
2017-12-31 15:00:00 13.5 22 Sudoeste 38 Oeste 0 -- -- 73
2017-12-31 14:00:00 12.8 22 Sudoeste 34 Sudoeste 0 -- -- 74
2017-12-31 13:00:00 12.9 18 Sudoeste 25 Sudoeste 0 -- -- 75
2017-12-31 12:00:00 11.7 13 Sudoeste 18 Sudoeste 0 -- -- 84
2017-12-31 11:00:00 10.3 9 Sur 14 Sur 0 -- -- 89
2017-12-31 10:00:00 9.5 4 Sur 9 Sur 0 -- -- 91
2017-12-31 09:00:00 9.3 4 Sur 15 Sur 0 -- -- 90
2017-12-31 08:00:00 9.7 9 Sudeste 18 Sudeste 0 -- -- 89
2017-12-31 07:00:00 9.5 11 Sudeste 21 Sudeste 0 -- -- 90
2017-12-31 06:00:00 10.7 11 Sudeste 21 Sudeste 0 -- -- 84
2017-12-31 05:00:00 11 8 Sudeste 12 Sudeste 0 -- -- 82
2017-12-31 04:00:00 10.6 4 Sudeste 10 Sudeste 0 -- -- 84
2017-12-31 03:00:00 10.8 8 Sudeste 14 Sudeste 0 -- -- 84
2017-12-31 02:00:00 11 7 Sudeste 12 Sudeste 0 -- -- 82
2017-12-31 01:00:00 11 8 Sudeste 13 Sudeste 0 -- -- 82